Portada
METAR-TAF:

METAR-TAF

Aeropuertos :

Aeropuerto Internacional Philip S. W. Goldson

Ciudad de Belice, Belice

latitud: 17-32N, longitud: 088-18W, altitud: 5 m

Observación

El informe se hizo hace 57 minutos, a las 21:00 UTC
Viento 5 kt del este
Temperatura 30°C
Humedad 84%
Presión 1011 hPa
Visibilidad 10 km o más
Cielo nuboso a una altura de 2100 ft

METAR: MZBZ 282100Z 10005KT 9999 BKN021 30/27 A2987 Q1011 NOSIG RMK DIST CBTOP-NW

Hora: 15:57 (21:57 UTC)

Pronóstico

El informe se hizo hace 6 horas y 57 minutos, a las 15:00 UTC
Pronóstico válido del 28 a las 18 UTC al 29 a las 18 UTC
Viento 10 kt del este
Visibilidad 10 km o más
Nubes dispersas a una altura de 2200 ft
Nubes dispersas a una altura de 4500 ft

TAF: MZBZ 281500Z 2818/2918 09010KT 9999 SCT022 SCT045

Observaciones y pronósticos meteorológicos de más de 4000 aeropuertos (mensajes METAR y TAF).

Los puntos amarillos y rojos representan las estaciones disponibles.

Ponga el ratón en el punto deseado para ver el nombre de la estación.

Haga clic para ver las observaciones y los pronósticos meteorológicos.

Para cambiar el mapa : haga clic en los botones verdes con una cruz de color negro para hacer un zoom, en el botón verde con un guión para alejar o en las flechas verdes para mapas adyacentes.


METAR-TAF: